createdAt,value
2023-06-27T00:02:04.323Z,71.34
2023-06-27T00:04:31.526Z,70.77
2023-06-27T00:06:58.684Z,71.55
2023-06-27T00:09:25.744Z,72.20
2023-06-27T00:11:52.733Z,73.10
2023-06-27T00:14:20.537Z,73.29
2023-06-27T00:16:47.622Z,72.19
2023-06-27T00:19:14.665Z,72.33
2023-06-27T00:21:41.779Z,71.26
2023-06-27T00:24:08.843Z,71.65
2023-06-27T00:26:36.065Z,71.82
2023-06-27T00:29:03.733Z,71.56
2023-06-27T00:31:30.779Z,70.94
2023-06-27T00:33:57.751Z,71.20
2023-06-27T00:36:24.793Z,71.86
2023-06-27T00:38:51.817Z,72.44
2023-06-27T00:41:18.889Z,72.25
2023-06-27T00:43:45.869Z,71.31
2023-06-27T00:46:17.389Z,71.52
2023-06-27T00:48:44.459Z,71.83
2023-06-27T00:51:11.650Z,71.25
2023-06-27T00:53:39.212Z,70.20
2023-06-27T00:56:06.407Z,70.84
2023-06-27T00:58:34.642Z,71.22
2023-06-27T01:01:02.312Z,71.75
2023-06-27T01:03:33.983Z,71.79
2023-06-27T01:06:16.212Z,71.53
2023-06-27T01:08:52.517Z,71.09
2023-06-27T01:11:30.483Z,70.77
2023-06-27T01:14:00.215Z,71.09
2023-06-27T01:16:31.226Z,71.67
2023-06-27T01:19:00.698Z,71.58
2023-06-27T01:21:29.989Z,70.06
2023-06-27T01:24:00.338Z,69.77
2023-06-27T01:26:29.970Z,69.85
2023-06-27T01:28:57.067Z,70.33
2023-06-27T01:32:16.151Z,71.10
2023-06-27T01:35:02.230Z,72.55
2023-06-27T01:37:39.979Z,74.04
2023-06-27T01:40:14.917Z,75.22
2023-06-27T01:42:51.003Z,76.55
2023-06-27T01:45:19.331Z,75.79
2023-06-27T01:47:46.702Z,73.95
2023-06-27T01:50:14.681Z,71.99
2023-06-27T01:52:42.266Z,71.83
2023-06-27T01:55:10.360Z,71.44
2023-06-27T01:57:37.880Z,71.94
2023-06-27T02:00:08.785Z,70.39
2023-06-27T02:02:35.822Z,72.32
2023-06-27T02:05:03.138Z,70.82
2023-06-27T02:07:30.275Z,71.99
2023-06-27T02:09:57.334Z,72.41
2023-06-27T02:12:24.342Z,73.75
2023-06-27T02:14:51.251Z,73.10
2023-06-27T02:17:18.163Z,73.07
2023-06-27T02:19:45.165Z,73.71
2023-06-27T02:22:12.146Z,73.45
2023-06-27T02:24:39.088Z,72.68
2023-06-27T02:27:06.577Z,72.23
2023-06-27T02:29:33.526Z,71.50
2023-06-27T02:32:00.608Z,70.24
2023-06-27T02:34:27.635Z,70.48
2023-06-27T02:36:54.587Z,70.23
2023-06-27T02:39:21.590Z,71.02
2023-06-27T02:41:48.522Z,72.38
2023-06-27T02:44:15.492Z,73.11
2023-06-27T02:46:42.494Z,72.04
2023-06-27T02:49:09.482Z,72.67
2023-06-27T02:51:36.435Z,73.45
2023-06-27T02:54:03.545Z,74.27
2023-06-27T02:56:30.581Z,75.72
2023-06-27T02:58:57.596Z,75.24
2023-06-27T03:01:24.586Z,74.77
2023-06-27T03:03:55.464Z,75.08
2023-06-27T03:06:26.991Z,74.17
2023-06-27T03:08:55.521Z,75.60
2023-06-27T03:11:22.442Z,74.84
2023-06-27T03:13:49.382Z,75.99
2023-06-27T03:16:16.442Z,76.17
2023-06-27T03:18:43.359Z,76.29
2023-06-27T03:21:10.423Z,75.88
2023-06-27T03:23:37.369Z,75.68
2023-06-27T03:26:04.388Z,75.83
2023-06-27T03:28:31.452Z,76.30
2023-06-27T03:30:59.616Z,76.37
2023-06-27T03:33:26.558Z,77.92
2023-06-27T03:35:53.480Z,78.98
2023-06-27T03:38:20.617Z,79.36
2023-06-27T03:40:47.622Z,79.34
2023-06-27T03:43:14.786Z,78.97
2023-06-27T03:45:42.575Z,78.60
2023-06-27T03:48:10.423Z,78.46
2023-06-27T03:50:38.117Z,78.93
2023-06-27T03:53:05.183Z,79.26
2023-06-27T03:55:34.177Z,78.34
2023-06-27T03:58:02.661Z,79.60
2023-06-27T04:00:30.259Z,80.64
2023-06-27T04:02:57.431Z,83.40
2023-06-27T04:05:24.617Z,83.15
2023-06-27T04:07:51.672Z,83.44
2023-06-27T04:10:19.954Z,83.96
2023-06-27T04:12:47.477Z,85.95
2023-06-27T04:15:14.546Z,84.79
2023-06-27T04:17:41.922Z,81.49
2023-06-27T04:20:09.563Z,81.33
2023-06-27T04:22:36.585Z,81.77
2023-06-27T04:25:03.639Z,82.62
2023-06-27T04:27:30.918Z,82.36
2023-06-27T04:29:58.922Z,82.31
2023-06-27T04:32:25.917Z,83.68
2023-06-27T04:34:52.935Z,82.85
2023-06-27T04:37:24.352Z,81.17
2023-06-27T04:39:52.650Z,82.65
2023-06-27T04:42:19.827Z,84.17
2023-06-27T04:44:46.766Z,84.44
2023-06-27T04:47:13.719Z,86.42
2023-06-27T04:49:40.696Z,88.39
2023-06-27T04:52:07.903Z,86.75
2023-06-27T04:54:35.037Z,85.67
2023-06-27T04:59:32.545Z,80.69
2023-06-27T05:01:59.595Z,77.08
2023-06-27T05:04:26.789Z,76.92
2023-06-27T05:06:55.095Z,77.73
2023-06-27T05:09:22.104Z,75.81
2023-06-27T05:11:49.215Z,75.01
2023-06-27T05:14:16.159Z,72.66
2023-06-27T05:16:43.136Z,72.85
2023-06-27T05:19:10.297Z,71.46
2023-06-27T05:21:37.582Z,70.98
2023-06-27T05:24:08.180Z,72.22
2023-06-27T05:26:35.897Z,71.18
2023-06-27T05:29:02.904Z,69.75
2023-06-27T05:31:29.984Z,68.92
2023-06-27T05:33:57.195Z,68.82
2023-06-27T05:36:24.142Z,70.21
2023-06-27T05:38:51.197Z,70.77
2023-06-27T05:41:19.524Z,70.38
2023-06-27T05:43:47.160Z,69.54
2023-06-27T05:46:14.352Z,69.31
2023-06-27T05:48:41.539Z,69.15
2023-06-27T05:51:09.619Z,69.13
2023-06-27T05:53:36.650Z,67.75
2023-06-27T05:56:03.698Z,69.50
2023-06-27T05:58:30.790Z,65.52
2023-06-27T06:00:57.795Z,66.41
2023-06-27T06:03:25.678Z,65.73
2023-06-27T06:05:52.661Z,66.06
2023-06-27T06:08:20.427Z,64.56
2023-06-27T06:10:51.236Z,63.24
2023-06-27T06:13:18.341Z,62.38
2023-06-27T06:15:45.915Z,63.11
2023-06-27T06:18:12.939Z,61.89
2023-06-27T06:20:39.997Z,61.46
2023-06-27T06:23:07.586Z,61.18
2023-06-27T06:25:34.813Z,60.97
2023-06-27T06:28:01.957Z,62.07
2023-06-27T06:30:28.932Z,61.61
2023-06-27T06:32:56.037Z,63.24
2023-06-27T06:35:23.169Z,64.33
2023-06-27T06:37:50.253Z,61.20
2023-06-27T06:40:17.397Z,63.55
2023-06-27T06:42:44.356Z,62.12
2023-06-27T06:45:11.640Z,60.57
2023-06-27T06:47:38.775Z,61.63
2023-06-27T06:50:06.438Z,61.01
2023-06-27T06:52:34.704Z,61.33
2023-06-27T06:55:01.665Z,60.00
2023-06-27T06:57:28.687Z,60.74
2023-06-27T06:59:55.891Z,61.04
2023-06-27T07:02:23.018Z,61.36
2023-06-27T07:04:50.203Z,60.97
2023-06-27T07:07:17.390Z,60.74
2023-06-27T07:09:44.377Z,61.82
2023-06-27T07:12:11.493Z,57.45
2023-06-27T07:14:38.594Z,56.96
2023-06-27T07:17:05.995Z,55.50
2023-06-27T07:19:33.157Z,55.47
2023-06-27T07:22:00.102Z,55.38
2023-06-27T07:24:27.149Z,54.95
2023-06-27T07:26:54.231Z,55.62
2023-06-27T07:29:22.918Z,55.27
2023-06-27T07:31:50.068Z,54.35
2023-06-27T07:34:18.117Z,55.02
2023-06-27T07:36:45.188Z,55.61
2023-06-27T07:39:12.197Z,54.47
2023-06-27T07:41:39.346Z,53.75
2023-06-27T07:44:06.552Z,53.71
2023-06-27T07:46:33.604Z,55.78
2023-06-27T07:49:01.503Z,54.23
2023-06-27T07:51:28.926Z,54.55
2023-06-27T07:53:58.097Z,54.50
2023-06-27T07:56:25.252Z,53.25
2023-06-27T07:58:52.388Z,54.10
2023-06-27T08:01:19.462Z,57.66
2023-06-27T08:03:46.515Z,56.35
2023-06-27T08:06:15.795Z,54.17
2023-06-27T08:08:42.943Z,53.76
2023-06-27T08:11:10.044Z,55.88
2023-06-27T08:13:42.479Z,54.87
2023-06-27T08:16:11.411Z,58.27
2023-06-27T08:18:38.403Z,66.19
2023-06-27T08:21:07.968Z,70.70
2023-06-27T08:23:34.903Z,62.19
2023-06-27T08:26:01.993Z,67.00
2023-06-27T08:28:29.158Z,60.08
2023-06-27T08:30:58.837Z,53.85
2023-06-27T08:33:26.229Z,52.81
2023-06-27T08:35:53.348Z,53.09
2023-06-27T08:38:20.557Z,55.10
2023-06-27T08:40:55.069Z,54.90
2023-06-27T08:43:23.289Z,54.59
2023-06-27T08:45:53.410Z,49.43
2023-06-27T08:48:21.058Z,52.33
2023-06-27T08:50:53.116Z,52.55
2023-06-27T08:53:23.169Z,55.42
2023-06-27T08:56:03.577Z,52.11
2023-06-27T08:58:47.230Z,52.77
2023-06-27T09:01:14.764Z,53.62
2023-06-27T09:03:42.221Z,55.63
2023-06-27T09:06:09.609Z,52.33
2023-06-27T09:08:37.169Z,57.21
2023-06-27T09:11:09.955Z,54.42
2023-06-27T09:13:39.082Z,54.33
2023-06-27T09:16:07.681Z,51.54
2023-06-27T09:18:37.300Z,54.56
2023-06-27T09:21:04.972Z,52.68
2023-06-27T09:23:32.364Z,49.61
2023-06-27T09:26:14.245Z,51.32
2023-06-27T09:28:52.758Z,53.20
2023-06-27T09:31:23.743Z,53.19
2023-06-27T09:33:52.882Z,52.16
2023-06-27T09:39:09.934Z,52.92
2023-06-27T09:41:51.763Z,53.44
2023-06-27T09:44:21.570Z,51.33
2023-06-27T09:46:50.722Z,50.58
2023-06-27T09:49:19.368Z,52.11
2023-06-27T09:51:48.128Z,52.02
2023-06-27T09:54:18.617Z,52.39
2023-06-27T09:56:53.351Z,51.49
2023-06-27T09:59:25.220Z,51.26
2023-06-27T10:01:54.105Z,52.49
2023-06-27T10:04:38.577Z,52.16
2023-06-27T10:07:10.197Z,50.17
2023-06-27T10:09:39.106Z,51.88
2023-06-27T10:12:08.509Z,50.88
2023-06-27T10:14:37.261Z,50.35
2023-06-27T10:17:08.601Z,50.40
2023-06-27T10:19:37.774Z,49.23
2023-06-27T10:22:12.261Z,49.54
2023-06-27T10:24:45.161Z,50.36
2023-06-27T10:27:15.208Z,51.12
2023-06-27T10:29:43.101Z,49.72
2023-06-27T10:32:10.810Z,51.04
2023-06-27T10:34:43.222Z,52.20
2023-06-27T10:37:21.267Z,49.91
2023-06-27T10:39:59.215Z,50.51
2023-06-27T10:42:26.094Z,49.63
2023-06-27T10:45:04.976Z,49.18
2023-06-27T10:47:45.207Z,49.54
2023-06-27T10:50:21.056Z,48.72
2023-06-27T10:53:06.354Z,48.96
2023-06-27T10:55:34.479Z,50.24
2023-06-27T10:58:11.195Z,51.69
2023-06-27T11:00:48.418Z,48.03
2023-06-27T11:03:20.742Z,48.24
2023-06-27T11:05:52.931Z,48.73
2023-06-27T11:08:22.560Z,49.63
2023-06-27T11:11:06.880Z,47.73
2023-06-27T11:13:41.961Z,46.85
2023-06-27T11:16:09.443Z,47.56
2023-06-27T11:18:37.833Z,45.42
2023-06-27T11:21:06.110Z,46.43
2023-06-27T11:23:35.128Z,46.04
2023-06-27T11:26:02.295Z,46.42
2023-06-27T11:28:29.457Z,47.00
2023-06-27T11:31:01.453Z,48.89
2023-06-27T11:33:29.338Z,47.20
2023-06-27T11:36:00.991Z,47.83
2023-06-27T11:38:30.286Z,47.69
2023-06-27T11:40:57.521Z,48.45
2023-06-27T11:43:24.477Z,48.71
2023-06-27T11:45:53.858Z,50.18
2023-06-27T11:48:21.782Z,45.26
2023-06-27T11:50:55.250Z,46.28
2023-06-27T11:53:28.303Z,45.74
2023-06-27T11:58:36.188Z,48.43
2023-06-27T12:01:12.376Z,46.51
2023-06-27T12:03:39.545Z,47.21
2023-06-27T12:06:07.160Z,44.59
2023-06-27T12:08:35.847Z,43.72
2023-06-27T12:11:04.408Z,44.53
2023-06-27T12:13:35.173Z,44.28
2023-06-27T12:16:03.479Z,43.87
2023-06-27T12:18:31.817Z,43.47
2023-06-27T12:21:00.388Z,42.76
2023-06-27T12:23:31.252Z,43.16
2023-06-27T12:25:59.334Z,43.62
2023-06-27T12:28:26.418Z,43.28
2023-06-27T12:30:53.392Z,43.59
2023-06-27T12:33:20.592Z,43.18
2023-06-27T12:35:47.701Z,41.63
2023-06-27T12:38:14.817Z,41.71
2023-06-27T12:40:42.231Z,41.02
2023-06-27T12:43:10.770Z,43.17
2023-06-27T12:45:44.189Z,42.20
2023-06-27T12:48:13.014Z,42.93
2023-06-27T12:50:40.382Z,42.16
2023-06-27T12:53:07.590Z,40.84
2023-06-27T12:55:34.807Z,41.76
2023-06-27T12:58:01.881Z,43.74
2023-06-27T13:00:29.400Z,42.10
2023-06-27T13:03:08.220Z,44.16
2023-06-27T13:05:43.502Z,42.36
2023-06-27T13:08:10.631Z,40.70
2023-06-27T13:10:38.020Z,40.85
2023-06-27T13:13:05.059Z,40.78
2023-06-27T13:15:41.028Z,40.67
2023-06-27T13:18:09.727Z,41.83
2023-06-27T13:20:36.827Z,43.04
2023-06-27T13:23:05.710Z,42.93
2023-06-27T13:25:33.011Z,43.99
2023-06-27T13:27:59.997Z,45.11
2023-06-27T13:30:28.452Z,42.70
2023-06-27T13:32:55.875Z,44.36
2023-06-27T13:35:23.389Z,44.30
2023-06-27T13:38:00.721Z,42.26
2023-06-27T13:40:29.498Z,43.24
2023-06-27T13:42:57.517Z,41.65
2023-06-27T13:45:25.200Z,42.30
2023-06-27T13:47:52.747Z,40.76
2023-06-27T13:50:21.325Z,41.12
2023-06-27T13:52:48.441Z,41.24
2023-06-27T13:55:15.466Z,41.98
2023-06-27T13:57:42.415Z,40.55
2023-06-27T14:00:10.313Z,42.42
2023-06-27T14:02:37.576Z,44.11
2023-06-27T14:05:04.925Z,41.50
2023-06-27T14:07:32.294Z,42.18
2023-06-27T14:09:59.312Z,43.53
2023-06-27T14:12:26.274Z,43.90
2023-06-27T14:14:53.351Z,43.25
2023-06-27T14:17:20.482Z,41.84
2023-06-27T14:19:47.482Z,42.65
2023-06-27T14:22:14.819Z,40.68
2023-06-27T14:24:42.040Z,42.08
2023-06-27T14:27:09.258Z,41.21
2023-06-27T14:29:36.200Z,40.70
2023-06-27T14:32:03.882Z,41.05
2023-06-27T14:34:30.949Z,39.81
2023-06-27T14:36:58.003Z,41.81
2023-06-27T14:39:25.042Z,42.77
2023-06-27T14:41:52.349Z,41.78
2023-06-27T14:44:19.380Z,42.35
2023-06-27T14:46:46.504Z,43.46
2023-06-27T14:49:13.646Z,43.39
2023-06-27T14:51:40.709Z,43.00
2023-06-27T14:54:07.733Z,42.02
2023-06-27T14:56:35.222Z,41.22
2023-06-27T14:59:02.260Z,41.47
2023-06-27T15:01:29.258Z,42.08
2023-06-27T15:03:56.371Z,41.59
2023-06-27T15:06:23.727Z,42.50
2023-06-27T15:08:52.869Z,42.41
2023-06-27T15:11:19.881Z,42.60
2023-06-27T15:13:46.918Z,42.90
2023-06-27T15:16:15.941Z,42.51
2023-06-27T15:18:43.382Z,42.37
2023-06-27T15:21:10.718Z,42.42
2023-06-27T15:23:40.733Z,42.66
2023-06-27T15:26:08.251Z,42.96
2023-06-27T15:28:35.294Z,42.40
2023-06-27T15:31:02.478Z,43.48
2023-06-27T15:33:29.428Z,43.77
2023-06-27T15:35:56.471Z,42.09
2023-06-27T15:38:23.545Z,42.33
2023-06-27T15:40:50.705Z,42.76
2023-06-27T15:43:17.781Z,41.75
2023-06-27T15:45:44.800Z,42.11
2023-06-27T15:48:11.854Z,40.92
2023-06-27T15:50:39.065Z,40.98
2023-06-27T15:53:06.098Z,42.39
2023-06-27T15:55:34.707Z,41.14
2023-06-27T15:58:03.376Z,40.96
2023-06-27T16:00:30.455Z,42.39
2023-06-27T16:02:57.802Z,42.06
2023-06-27T16:05:25.248Z,41.67
2023-06-27T16:07:52.417Z,40.89
2023-06-27T16:10:19.522Z,41.77
2023-06-27T16:12:46.523Z,41.80
2023-06-27T16:15:13.569Z,41.11
2023-06-27T16:17:40.564Z,41.83
2023-06-27T16:20:08.480Z,41.14
2023-06-27T16:22:35.539Z,42.26
2023-06-27T16:25:03.774Z,41.66
2023-06-27T16:27:30.723Z,41.87
2023-06-27T16:29:58.729Z,42.09
2023-06-27T16:32:25.858Z,41.60
2023-06-27T16:34:52.796Z,41.56
2023-06-27T16:37:19.904Z,42.07
2023-06-27T16:39:46.883Z,41.37
2023-06-27T16:42:13.904Z,42.70
2023-06-27T16:44:40.952Z,42.48
2023-06-27T16:47:08.022Z,41.93
2023-06-27T16:49:34.986Z,41.27
2023-06-27T16:52:01.951Z,42.36
2023-06-27T16:54:28.952Z,42.45
2023-06-27T16:56:55.932Z,41.71
2023-06-27T16:59:22.961Z,42.29
2023-06-27T17:01:55.446Z,42.87
2023-06-27T17:04:25.292Z,42.23
2023-06-27T17:06:52.671Z,42.14
2023-06-27T17:09:19.990Z,42.37
2023-06-27T17:11:47.959Z,43.21
2023-06-27T17:14:15.458Z,43.46
2023-06-27T17:16:42.963Z,43.21
2023-06-27T17:19:11.424Z,42.33
2023-06-27T17:21:38.637Z,41.14
2023-06-27T17:24:06.339Z,41.65
2023-06-27T17:26:33.388Z,41.12
2023-06-27T17:29:00.846Z,42.05
2023-06-27T17:31:27.920Z,43.01
2023-06-27T17:33:54.878Z,42.83
2023-06-27T17:36:23.231Z,41.95
2023-06-27T17:38:50.196Z,41.17
2023-06-27T17:41:18.193Z,42.02
2023-06-27T17:43:45.263Z,43.41
2023-06-27T17:46:12.172Z,43.59
2023-06-27T17:48:39.141Z,44.92
2023-06-27T17:51:06.171Z,44.94
2023-06-27T17:53:33.260Z,45.40
2023-06-27T17:56:00.317Z,45.67
2023-06-27T17:58:28.670Z,45.86
2023-06-27T18:01:00.443Z,44.58
2023-06-27T18:03:27.600Z,42.62
2023-06-27T18:05:55.464Z,43.44
2023-06-27T18:08:22.658Z,42.68
2023-06-27T18:10:49.720Z,45.59
2023-06-27T18:13:17.453Z,46.31
2023-06-27T18:15:44.580Z,47.52
2023-06-27T18:18:11.556Z,46.98
2023-06-27T18:20:39.856Z,48.19
2023-06-27T18:23:11.157Z,47.97
2023-06-27T18:25:38.445Z,49.47
2023-06-27T18:28:05.914Z,48.77
2023-06-27T18:30:32.944Z,49.34
2023-06-27T18:33:02.274Z,49.84
2023-06-27T18:35:29.993Z,50.92
2023-06-27T18:37:59.162Z,51.38
2023-06-27T18:40:26.147Z,51.64
2023-06-27T18:42:55.182Z,52.29
2023-06-27T18:45:25.208Z,52.35
2023-06-27T18:47:53.562Z,52.88
2023-06-27T18:50:22.660Z,52.66
2023-06-27T18:52:52.047Z,52.69
2023-06-27T18:55:20.057Z,53.30
2023-06-27T18:57:48.322Z,53.55
2023-06-27T19:00:16.071Z,54.09
2023-06-27T19:02:44.618Z,54.20
2023-06-27T19:05:11.851Z,53.81
2023-06-27T19:07:39.028Z,54.48
2023-06-27T19:10:08.438Z,55.40
2023-06-27T19:12:36.038Z,55.16
2023-06-27T19:15:03.894Z,54.07
2023-06-27T19:17:31.311Z,53.11
2023-06-27T19:19:59.036Z,53.97
2023-06-27T19:22:26.606Z,53.90
2023-06-27T19:24:55.697Z,53.82
2023-06-27T19:27:22.745Z,54.08
2023-06-27T19:29:49.704Z,54.00
2023-06-27T19:32:16.780Z,54.45
2023-06-27T19:34:43.738Z,54.68
2023-06-27T19:37:10.717Z,55.00
2023-06-27T19:39:37.760Z,55.92
2023-06-27T19:42:06.538Z,55.94
2023-06-27T19:44:33.557Z,55.11
2023-06-27T19:47:00.568Z,55.65
2023-06-27T19:49:27.624Z,55.96
2023-06-27T19:51:54.596Z,56.37
2023-06-27T19:54:21.617Z,56.91
2023-06-27T19:56:48.593Z,57.13
2023-06-27T19:59:15.529Z,57.23
2023-06-27T20:01:42.660Z,57.13
2023-06-27T20:04:09.757Z,57.14
2023-06-27T20:06:36.832Z,57.77
2023-06-27T20:09:03.946Z,57.96
2023-06-27T20:11:30.931Z,58.34
2023-06-27T20:13:58.917Z,58.47
2023-06-27T20:16:26.309Z,58.74
2023-06-27T20:18:53.320Z,59.34
2023-06-27T20:21:20.425Z,58.65
2023-06-27T20:23:47.558Z,58.61
2023-06-27T20:26:14.737Z,58.56
2023-06-27T20:28:41.941Z,58.53
2023-06-27T20:31:11.229Z,58.55
2023-06-27T20:33:38.341Z,58.63
2023-06-27T20:36:05.641Z,58.45
2023-06-27T20:38:32.613Z,59.50
2023-06-27T20:40:59.529Z,59.53
2023-06-27T20:43:26.495Z,59.50
2023-06-27T20:45:53.479Z,59.97
2023-06-27T20:48:20.560Z,60.08
2023-06-27T20:50:47.570Z,60.10
2023-06-27T20:53:14.681Z,59.97
2023-06-27T20:55:41.720Z,59.50
2023-06-27T20:58:12.002Z,59.35
2023-06-27T21:00:40.049Z,59.86
2023-06-27T21:03:09.857Z,60.08
2023-06-27T21:05:37.296Z,59.81
2023-06-27T21:08:04.729Z,60.58
2023-06-27T21:10:31.695Z,61.05
2023-06-27T21:12:58.672Z,61.45
2023-06-27T21:15:25.615Z,61.26
2023-06-27T21:17:52.590Z,61.87
2023-06-27T21:20:19.561Z,61.27
2023-06-27T21:22:46.549Z,61.46
2023-06-27T21:25:13.480Z,61.41
2023-06-27T21:27:50.752Z,60.72
2023-06-27T21:30:19.187Z,60.90
2023-06-27T21:32:47.218Z,60.81
2023-06-27T21:35:14.295Z,60.42
2023-06-27T21:37:41.200Z,59.84
2023-06-27T21:40:08.841Z,61.25
2023-06-27T21:42:36.445Z,61.63
2023-06-27T21:45:04.326Z,61.14
2023-06-27T21:47:32.933Z,60.79
2023-06-27T21:50:00.729Z,61.08
2023-06-27T21:52:27.740Z,60.74
2023-06-27T21:54:54.833Z,60.92
2023-06-27T21:57:21.815Z,60.02
2023-06-27T21:59:49.351Z,60.43
2023-06-27T22:02:16.368Z,60.93
2023-06-27T22:04:43.707Z,60.67
2023-06-27T22:07:10.883Z,61.26
2023-06-27T22:09:38.688Z,62.36
2023-06-27T22:12:06.612Z,62.47
2023-06-27T22:14:33.615Z,62.84
2023-06-27T22:17:00.566Z,63.41
2023-06-27T22:19:27.649Z,62.87
2023-06-27T22:21:54.998Z,63.48
2023-06-27T22:24:22.062Z,63.97
2023-06-27T22:26:49.341Z,63.01
2023-06-27T22:29:16.388Z,63.30
2023-06-27T22:31:44.507Z,63.30
2023-06-27T22:34:11.562Z,63.43
2023-06-27T22:36:38.459Z,63.54
2023-06-27T22:39:05.543Z,63.75
2023-06-27T22:41:32.573Z,64.46
2023-06-27T22:43:59.546Z,65.14
2023-06-27T22:46:26.545Z,66.09
2023-06-27T22:48:54.063Z,66.94
2023-06-27T22:51:21.111Z,66.72
2023-06-27T22:53:49.920Z,67.31
2023-06-27T22:56:17.869Z,67.24
2023-06-27T22:58:45.006Z,67.25
2023-06-27T23:01:12.286Z,66.78
2023-06-27T23:03:39.295Z,67.29
2023-06-27T23:06:07.057Z,68.01
2023-06-27T23:08:34.298Z,67.84
2023-06-27T23:11:01.445Z,66.81
2023-06-27T23:13:28.482Z,67.26
2023-06-27T23:15:55.383Z,67.85
2023-06-27T23:18:22.336Z,67.15
2023-06-27T23:20:52.368Z,67.92
2023-06-27T23:23:19.537Z,67.71
2023-06-27T23:25:49.161Z,67.93
2023-06-27T23:28:17.045Z,68.80
2023-06-27T23:30:57.449Z,68.27
2023-06-27T23:33:25.064Z,69.19
2023-06-27T23:35:52.252Z,68.53
2023-06-27T23:38:20.264Z,68.10
2023-06-27T23:40:51.185Z,69.35
2023-06-27T23:43:18.181Z,70.32
2023-06-27T23:45:45.237Z,70.20
2023-06-27T23:48:12.212Z,69.99
2023-06-27T23:50:39.426Z,70.03
2023-06-27T23:53:06.762Z,69.36
2023-06-27T23:55:33.874Z,68.57
2023-06-27T23:58:00.911Z,68.41
